Time;durP1;ratioP1;P1;durP2;ratioP2;P2;SDS_P1;SDS_P2;PMS_P1;PMS_P2;Temp;Humidity;BMP_temperature;BMP_pressure;BME280_temperature;BME280_humidity;BME280_pressure;Samples;Min_cycle;Max_cycle;Signal;HPM_P1;HPM_P2
2022/06/30 00:01:58;;;;;;;19.52;10.95;;;19.70;99.90;;;;;;5013537;28;20454;-62
2022/06/30 00:04:24;;;;;;;20.75;11.40;;;19.70;99.90;;;;;;5006964;28;20410;-63
2022/06/30 00:06:52;;;;;;;18.00;11.25;;;19.70;99.90;;;;;;5006941;28;20044;-63
2022/06/30 00:09:18;;;;;;;18.17;12.00;;;19.70;99.90;;;;;;5017286;28;20022;-62
2022/06/30 00:11:44;;;;;;;14.77;10.98;;;19.70;99.90;;;;;;5020824;28;20466;-62
2022/06/30 00:14:10;;;;;;;19.85;12.23;;;19.60;99.90;;;;;;5014792;28;20034;-62
2022/06/30 00:16:35;;;;;;;17.65;12.02;;;19.50;99.90;;;;;;5020441;28;20034;-62
2022/06/30 00:19:01;;;;;;;21.63;11.93;;;19.50;99.90;;;;;;5016150;28;20051;-62
2022/06/30 00:21:27;;;;;;;19.33;11.20;;;19.40;99.90;;;;;;5015523;28;20045;-64
2022/06/30 00:23:53;;;;;;;22.23;11.95;;;19.30;99.90;;;;;;5016045;28;20021;-64
2022/06/30 00:26:18;;;;;;;17.85;11.60;;;19.20;99.90;;;;;;5028141;28;20116;-63
2022/06/30 00:28:44;;;;;;;15.75;11.60;;;19.20;99.90;;;;;;5020941;28;20047;-63
2022/06/30 00:31:10;;;;;;;17.85;11.70;;;19.30;99.90;;;;;;5028916;28;20090;-63
2022/06/30 00:33:35;;;;;;;16.50;11.77;;;19.30;99.90;;;;;;5010117;28;20041;-63
2022/06/30 00:36:01;;;;;;;23.48;12.73;;;19.40;99.90;;;;;;5022632;28;20034;-63
2022/06/30 00:38:27;;;;;;;15.18;11.52;;;19.40;99.90;;;;;;5025656;28;20711;-63
2022/06/30 00:40:52;;;;;;;15.93;11.00;;;19.40;99.90;;;;;;5011140;28;20418;-62
2022/06/30 00:43:18;;;;;;;14.18;10.15;;;19.30;99.90;;;;;;5006168;28;20030;-63
2022/06/30 00:45:46;;;;;;;18.00;11.02;;;19.20;99.90;;;;;;5009546;28;20025;-63
2022/06/30 00:48:13;;;;;;;17.30;11.10;;;19.10;99.90;;;;;;5005420;28;20041;-63
2022/06/30 00:50:39;;;;;;;14.88;11.20;;;19.10;99.90;;;;;;5012200;28;20177;-63
2022/06/30 00:53:06;;;;;;;18.88;11.65;;;19.10;99.90;;;;;;5009893;28;20046;-63
2022/06/30 00:55:33;;;;;;;18.27;11.90;;;19.10;99.90;;;;;;5026179;28;20406;-63
2022/06/30 00:58:04;;;;;;;16.08;11.32;;;19.00;99.90;;;;;;5025988;28;20026;-64
2022/06/30 01:00:35;;;;;;;21.75;11.30;;;19.00;99.90;;;;;;5026300;28;20040;-63
2022/06/30 01:03:01;;;;;;;18.42;11.50;;;19.10;99.90;;;;;;5015148;28;20064;-64
2022/06/30 01:05:27;;;;;;;18.27;12.10;;;19.10;99.90;;;;;;5013368;28;20141;-63
2022/06/30 01:07:54;;;;;;;24.73;12.70;;;19.10;99.90;;;;;;5026418;28;20477;-63
2022/06/30 01:13:04;;;;;;;21.50;13.25;;;19.00;99.90;;;;;;5010358;28;20045;-62
2022/06/30 01:15:30;;;;;;;18.63;12.70;;;18.90;99.90;;;;;;5010622;28;20033;-63
2022/06/30 01:17:56;;;;;;;18.95;12.95;;;18.80;99.90;;;;;;5007382;28;20120;-64
2022/06/30 01:20:27;;;;;;;16.30;12.45;;;18.70;99.90;;;;;;5004077;28;20081;-62
2022/06/30 01:22:52;;;;;;;15.55;11.88;;;18.70;99.90;;;;;;5009050;28;20041;-62
2022/06/30 01:25:18;;;;;;;18.50;12.98;;;18.70;99.90;;;;;;5007621;28;20033;-62
2022/06/30 01:27:44;;;;;;;19.40;12.35;;;18.70;99.90;;;;;;5007765;28;20391;-62
2022/06/30 01:30:10;;;;;;;20.60;12.00;;;18.60;99.90;;;;;;5007508;28;20037;-62
2022/06/30 01:32:36;;;;;;;22.23;13.00;;;18.40;99.90;;;;;;5007033;28;20121;-63
2022/06/30 01:35:03;;;;;;;15.95;12.05;;;18.20;99.90;;;;;;5004622;28;20042;-62
2022/06/30 01:37:58;;;;;;;18.98;12.93;;;18.20;99.90;;;;;;5013554;28;20030;-62
2022/06/30 01:40:30;;;;;;;19.33;12.80;;;18.10;99.90;;;;;;5008106;28;20168;-62
2022/06/30 01:42:56;;;;;;;25.92;13.45;;;18.10;99.90;;;;;;5008228;28;20092;-63
2022/06/30 01:45:23;;;;;;;20.90;12.77;;;18.20;99.90;;;;;;5005642;28;20442;-63
2022/06/30 01:47:50;;;;;;;18.63;13.32;;;18.20;99.90;;;;;;5006716;28;20034;-63
2022/06/30 01:50:21;;;;;;;18.60;13.00;;;18.20;99.90;;;;;;5004180;28;20034;-63
2022/06/30 01:52:47;;;;;;;21.25;12.52;;;18.10;99.90;;;;;;5006185;28;20072;-63
2022/06/30 01:55:13;;;;;;;21.42;12.85;;;18.10;99.90;;;;;;5020490;28;20367;-62
2022/06/30 01:57:40;;;;;;;20.27;13.55;;;18.10;99.90;;;;;;5006345;28;20038;-64
2022/06/30 02:00:08;;;;;;;20.33;12.68;;;18.10;99.90;;;;;;5006257;28;20038;-63
2022/06/30 02:02:34;;;;;;;18.77;13.05;;;18.10;99.90;;;;;;5002654;28;20060;-62
2022/06/30 02:05:00;;;;;;;21.63;12.95;;;18.10;99.90;;;;;;5013970;28;20116;-65
2022/06/30 02:07:26;;;;;;;19.88;12.57;;;18.10;99.90;;;;;;5008256;28;20461;-62
2022/06/30 02:09:52;;;;;;;19.85;12.68;;;18.00;99.90;;;;;;5015109;28;20045;-63
2022/06/30 02:15:06;;;;;;;18.95;11.82;;;18.00;99.90;;;;;;5022783;28;20060;-63
2022/06/30 02:17:31;;;;;;;20.33;11.85;;;17.90;99.90;;;;;;5004873;28;20033;-63
2022/06/30 02:19:57;;;;;;;19.05;12.20;;;17.90;99.90;;;;;;5013445;28;20029;-63
2022/06/30 02:22:23;;;;;;;19.05;12.50;;;17.80;99.90;;;;;;5006619;28;20430;-63
2022/06/30 02:24:49;;;;;;;21.67;12.80;;;17.70;99.90;;;;;;5013375;28;20484;-63
2022/06/30 02:27:14;;;;;;;18.17;12.88;;;17.70;99.90;;;;;;5011796;28;20026;-63
2022/06/30 02:29:40;;;;;;;19.35;12.55;;;17.70;99.90;;;;;;5022102;28;20061;-63
2022/06/30 02:32:06;;;;;;;18.90;12.23;;;17.70;99.90;;;;;;5007471;28;20481;-62
2022/06/30 02:34:32;;;;;;;20.42;13.13;;;17.60;99.90;;;;;;5010339;28;20042;-63
2022/06/30 02:36:58;;;;;;;20.85;12.48;;;17.60;99.90;;;;;;5011247;28;20033;-62
2022/06/30 02:39:24;;;;;;;21.02;13.30;;;17.70;99.90;;;;;;5016263;28;20191;-63
2022/06/30 02:41:50;;;;;;;21.05;13.50;;;17.60;99.90;;;;;;5010347;28;20037;-62
2022/06/30 02:44:16;;;;;;;20.20;13.85;;;17.50;99.90;;;;;;5008943;28;20030;-62
2022/06/30 02:46:41;;;;;;;19.35;13.90;;;17.50;99.90;;;;;;5008826;28;20042;-63
2022/06/30 02:49:07;;;;;;;22.55;13.50;;;17.40;99.90;;;;;;5010877;28;20129;-63
2022/06/30 02:51:33;;;;;;;18.92;13.40;;;17.40;99.90;;;;;;5008682;28;20044;-63
2022/06/30 02:53:58;;;;;;;23.08;13.50;;;17.40;99.90;;;;;;5007204;28;20052;-63
2022/06/30 02:56:24;;;;;;;20.10;14.27;;;17.40;99.90;;;;;;5010630;28;20117;-63
2022/06/30 02:58:50;;;;;;;23.88;14.50;;;17.40;99.90;;;;;;5006804;28;20065;-63
2022/06/30 03:01:16;;;;;;;19.80;13.77;;;17.40;99.90;;;;;;5009522;28;20092;-63
2022/06/30 03:03:41;;;;;;;19.40;13.50;;;17.50;99.90;;;;;;5020427;28;20444;-62
2022/06/30 03:06:07;;;;;;;18.38;13.20;;;17.40;99.90;;;;;;5005557;28;20661;-64
2022/06/30 03:08:33;;;;;;;21.33;13.30;;;17.40;99.90;;;;;;5005470;28;20462;-63
2022/06/30 03:10:59;;;;;;;19.63;12.52;;;17.30;99.90;;;;;;5001349;28;20026;-63
2022/06/30 03:13:25;;;;;;;20.70;14.00;;;17.20;99.90;;;;;;5009608;28;20041;-62
2022/06/30 03:15:51;;;;;;;21.52;13.50;;;17.10;99.90;;;;;;5005975;28;20037;-62
2022/06/30 03:18:17;;;;;;;23.65;13.48;;;17.10;99.90;;;;;;5011750;28;20394;-62
2022/06/30 03:20:43;;;;;;;21.20;13.10;;;17.10;99.90;;;;;;5011363;28;20018;-62
2022/06/30 03:23:08;;;;;;;19.95;13.35;;;17.10;99.90;;;;;;5006472;28;20026;-62
2022/06/30 03:25:34;;;;;;;19.17;13.00;;;17.10;99.90;;;;;;5010122;28;20042;-62
2022/06/30 03:28:02;;;;;;;21.63;13.23;;;17.00;99.90;;;;;;5011111;28;20747;-63
2022/06/30 03:30:28;;;;;;;20.10;13.07;;;16.90;99.90;;;;;;5010219;28;20172;-62
2022/06/30 03:32:53;;;;;;;19.75;13.43;;;16.80;99.90;;;;;;5009846;28;20121;-62
2022/06/30 03:35:19;;;;;;;19.63;13.25;;;16.70;99.90;;;;;;5010203;28;20116;-62
2022/06/30 03:37:46;;;;;;;20.27;12.77;;;16.70;99.90;;;;;;5009800;28;20050;-62
2022/06/30 03:40:12;;;;;;;21.85;13.30;;;16.70;99.90;;;;;;5008758;28;20028;-62
2022/06/30 03:42:38;;;;;;;19.17;12.23;;;16.70;99.90;;;;;;5009148;28;20037;-62
2022/06/30 03:45:04;;;;;;;21.80;12.65;;;16.80;99.90;;;;;;5009395;28;20026;-63
2022/06/30 03:47:30;;;;;;;19.52;13.23;;;16.80;99.90;;;;;;5007803;28;20100;-64
2022/06/30 03:49:56;;;;;;;20.63;13.60;;;16.90;99.90;;;;;;5002951;28;20026;-64
2022/06/30 03:52:21;;;;;;;20.70;13.02;;;16.80;99.90;;;;;;5008881;28;20041;-62
2022/06/30 03:54:47;;;;;;;16.77;12.43;;;16.80;99.90;;;;;;5008488;28;20062;-62
2022/06/30 03:57:13;;;;;;;22.23;13.63;;;16.80;99.90;;;;;;5008473;28;20030;-62
2022/06/30 03:59:39;;;;;;;19.10;13.23;;;16.90;99.90;;;;;;5008246;28;20107;-62
2022/06/30 04:02:06;;;;;;;19.67;12.93;;;16.90;99.90;;;;;;5009067;28;20034;-64
2022/06/30 04:04:32;;;;;;;18.92;12.90;;;16.90;99.90;;;;;;5008047;28;20107;-63
2022/06/30 04:06:58;;;;;;;17.90;12.00;;;16.90;99.90;;;;;;5008723;28;20037;-63
2022/06/30 04:09:24;;;;;;;18.35;12.30;;;16.90;99.90;;;;;;5008126;28;20389;-63
2022/06/30 04:11:49;;;;;;;18.40;12.20;;;16.80;99.90;;;;;;5010372;28;20037;-63
2022/06/30 04:14:15;;;;;;;17.65;12.10;;;16.90;99.90;;;;;;5008672;28;20037;-63
2022/06/30 04:16:41;;;;;;;16.60;11.75;;;17.00;99.90;;;;;;5010033;28;20034;-64
2022/06/30 04:19:06;;;;;;;18.88;11.98;;;17.10;99.90;;;;;;5007551;28;20056;-63
2022/06/30 04:21:32;;;;;;;18.58;13.00;;;17.00;99.90;;;;;;5006661;28;20033;-63
2022/06/30 04:23:58;;;;;;;19.40;12.48;;;17.00;99.90;;;;;;5010151;28;20470;-62
2022/06/30 04:26:23;;;;;;;18.05;12.63;;;16.90;99.90;;;;;;5006289;28;20084;-63
2022/06/30 04:28:49;;;;;;;19.63;12.38;;;17.10;99.90;;;;;;5008237;28;20080;-62
2022/06/30 04:33:59;;;;;;;17.88;11.65;;;17.50;99.90;;;;;;5006963;28;20560;-64
2022/06/30 04:36:24;;;;;;;21.33;12.13;;;17.50;99.90;;;;;;5008913;28;20029;-63
2022/06/30 04:38:50;;;;;;;16.77;10.95;;;17.60;99.90;;;;;;5008520;28;20038;-63
2022/06/30 04:41:25;;;;;;;17.83;12.27;;;17.80;99.90;;;;;;5008093;28;20037;-62
2022/06/30 04:43:52;;;;;;;17.92;12.35;;;17.80;99.90;;;;;;5009376;28;20042;-62
2022/06/30 04:46:18;;;;;;;18.90;12.10;;;17.80;99.90;;;;;;5007053;28;20038;-62
2022/06/30 04:48:43;;;;;;;16.38;11.63;;;17.80;99.90;;;;;;5007974;28;20042;-62
2022/06/30 04:51:09;;;;;;;16.08;11.48;;;17.90;99.90;;;;;;5007347;28;20037;-63
2022/06/30 04:53:35;;;;;;;19.42;11.90;;;18.00;99.90;;;;;;5009022;28;20115;-62
2022/06/30 04:56:01;;;;;;;21.52;11.73;;;18.10;99.90;;;;;;5008607;28;20478;-62
2022/06/30 04:58:27;;;;;;;15.75;11.68;;;18.10;99.90;;;;;;5007461;28;20080;-63
2022/06/30 05:00:52;;;;;;;19.42;11.65;;;18.30;99.90;;;;;;5008159;28;20084;-62
2022/06/30 05:03:18;;;;;;;17.95;12.05;;;18.50;99.90;;;;;;5006464;28;20034;-63
2022/06/30 05:05:44;;;;;;;18.50;10.80;;;18.60;99.90;;;;;;5008632;28;20463;-63
2022/06/30 05:08:09;;;;;;;21.58;11.90;;;18.70;99.90;;;;;;5007331;28;20467;-64
2022/06/30 05:10:35;;;;;;;19.40;12.68;;;18.80;99.90;;;;;;5006924;28;20038;-63
2022/06/30 05:13:01;;;;;;;19.23;11.80;;;18.90;99.90;;;;;;5006605;28;20042;-64
2022/06/30 05:15:26;;;;;;;17.98;11.02;;;19.10;99.90;;;;;;5007389;28;20033;-63
2022/06/30 05:17:52;;;;;;;16.27;11.05;;;19.30;99.90;;;;;;5007623;28;20037;-63
2022/06/30 05:20:18;;;;;;;20.05;11.32;;;19.60;99.90;;;;;;5006335;28;20034;-63
2022/06/30 05:22:44;;;;;;;19.27;10.85;;;19.80;99.90;;;;;;5006530;28;20030;-63
2022/06/30 05:27:56;;;;;;;17.92;11.85;;;20.00;99.90;;;;;;4986827;28;20046;-64
2022/06/30 05:30:21;;;;;;;20.90;11.52;;;20.10;99.90;;;;;;5006669;28;20059;-63
2022/06/30 05:32:47;;;;;;;17.02;11.45;;;20.10;99.90;;;;;;5005589;28;20100;-63
2022/06/30 05:35:13;;;;;;;18.63;12.18;;;20.30;99.90;;;;;;5007106;28;20446;-64
2022/06/30 05:37:39;;;;;;;19.70;11.63;;;20.40;99.90;;;;;;5005772;28;20105;-63
2022/06/30 05:40:06;;;;;;;21.42;11.35;;;20.40;99.90;;;;;;5007946;28;20459;-63
2022/06/30 05:42:31;;;;;;;17.55;12.80;;;20.50;99.90;;;;;;5006103;28;20061;-64
2022/06/30 05:44:57;;;;;;;17.98;12.75;;;20.50;99.90;;;;;;5007660;28;20381;-64
2022/06/30 05:47:23;;;;;;;18.98;12.60;;;20.60;99.90;;;;;;5008070;28;20030;-63
2022/06/30 05:49:48;;;;;;;19.65;11.77;;;20.70;99.90;;;;;;5006393;28;20028;-64
2022/06/30 05:52:14;;;;;;;19.08;11.98;;;20.90;99.90;;;;;;5006838;28;20113;-64
2022/06/30 05:54:40;;;;;;;22.08;11.95;;;21.00;99.90;;;;;;5005002;28;20054;-63
2022/06/30 05:57:06;;;;;;;16.80;11.68;;;21.20;99.90;;;;;;5006367;28;20088;-63
2022/06/30 05:59:32;;;;;;;18.15;11.07;;;21.30;99.90;;;;;;5006125;28;20037;-62
2022/06/30 06:01:59;;;;;;;21.40;10.90;;;21.40;99.90;;;;;;5007357;28;20386;-63
2022/06/30 06:04:25;;;;;;;16.70;11.32;;;21.60;99.90;;;;;;5009356;28;20030;-62
2022/06/30 06:06:50;;;;;;;18.50;10.52;;;21.70;99.90;;;;;;5010154;28;20029;-64
2022/06/30 06:09:16;;;;;;;21.08;10.68;;;21.80;99.90;;;;;;5010946;28;20034;-65
2022/06/30 06:11:42;;;;;;;24.77;9.98;;;22.00;99.90;;;;;;5009579;28;20034;-64
2022/06/30 06:14:08;;;;;;;15.98;10.25;;;22.00;99.90;;;;;;5009872;28;20040;-63
2022/06/30 06:16:34;;;;;;;18.40;11.10;;;22.00;99.90;;;;;;5014104;28;20030;-64
2022/06/30 06:18:59;;;;;;;16.98;11.77;;;22.10;99.90;;;;;;5012542;28;20029;-63
2022/06/30 06:21:26;;;;;;;15.50;10.75;;;22.30;99.90;;;;;;5005337;28;20072;-63
2022/06/30 06:23:53;;;;;;;16.38;10.40;;;22.40;99.90;;;;;;5009535;28;20029;-64
2022/06/30 06:26:19;;;;;;;17.80;10.30;;;22.40;99.90;;;;;;5008328;28;20081;-64
2022/06/30 06:31:29;;;;;;;14.63;9.52;;;22.80;99.90;;;;;;5009629;28;20060;-64
2022/06/30 06:33:55;;;;;;;19.73;10.05;;;23.00;99.90;;;;;;5008922;28;20110;-65
2022/06/30 06:36:21;;;;;;;16.42;9.88;;;23.20;99.90;;;;;;5007455;28;20029;-65
2022/06/30 06:38:46;;;;;;;17.98;10.00;;;23.30;99.90;;;;;;5008289;28;20134;-64
2022/06/30 06:41:12;;;;;;;23.70;9.93;;;23.60;99.90;;;;;;5008056;28;20034;-65
2022/06/30 06:43:38;;;;;;;13.88;9.15;;;23.80;99.90;;;;;;5008426;28;20024;-64
2022/06/30 06:46:04;;;;;;;14.63;9.75;;;23.90;99.90;;;;;;5008539;28;20026;-64
2022/06/30 06:48:29;;;;;;;11.02;8.40;;;24.10;99.90;;;;;;5008698;28;20514;-64
2022/06/30 06:50:55;;;;;;;16.17;8.27;;;24.30;99.90;;;;;;5010444;28;20096;-64
2022/06/30 06:53:21;;;;;;;11.85;8.73;;;24.40;99.90;;;;;;5005741;28;20049;-64
2022/06/30 06:55:46;;;;;;;14.98;8.15;;;24.40;99.90;;;;;;5004520;28;20033;-65
2022/06/30 06:58:12;;;;;;;14.18;7.88;;;24.60;99.90;;;;;;5005678;28;20033;-65
2022/06/30 07:00:38;;;;;;;13.65;7.20;;;24.70;99.90;;;;;;5010024;28;20065;-64
2022/06/30 07:03:04;;;;;;;12.18;7.93;;;24.60;99.90;;;;;;5010004;28;20121;-64
2022/06/30 07:05:29;;;;;;;12.95;7.68;;;24.80;99.90;;;;;;5006791;28;20095;-67
2022/06/30 07:07:59;;;;;;;14.05;8.13;;;25.00;99.90;;;;;;5011272;28;20026;-64
2022/06/30 07:10:26;;;;;;;;;;;25.20;99.90;;;;;;5006634;28;20026;-66
2022/06/30 07:12:52;;;;;;;12.23;7.60;;;25.20;99.90;;;;;;5010120;28;20009;-64
2022/06/30 07:15:18;;;;;;;12.25;8.60;;;25.30;99.90;;;;;;5008542;28;20057;-65
2022/06/30 07:17:43;;;;;;;14.27;8.60;;;25.40;99.90;;;;;;5004581;28;20030;-64
2022/06/30 07:20:09;;;;;;;13.20;8.18;;;25.40;99.90;;;;;;5007522;28;20654;-64
2022/06/30 07:22:35;;;;;;;14.30;7.80;;;25.40;99.90;;;;;;5006332;28;20538;-63
2022/06/30 07:25:02;;;;;;;16.83;8.32;;;25.30;99.90;;;;;;5004734;28;20035;-64
2022/06/30 07:27:28;;;;;;;15.57;8.50;;;25.40;99.90;;;;;;5004073;28;20113;-65
2022/06/30 07:29:54;;;;;;;10.43;8.00;;;25.50;99.90;;;;;;5010417;28;20030;-63
2022/06/30 07:32:20;;;;;;;18.75;8.32;;;25.50;99.90;;;;;;5007806;28;20034;-64
2022/06/30 07:34:45;;;;;;;11.25;7.50;;;25.60;99.90;;;;;;5010238;28;20046;-63
2022/06/30 07:37:11;;;;;;;9.45;7.50;;;25.60;99.90;;;;;;5006706;28;20033;-64
2022/06/30 07:39:37;;;;;;;12.80;7.68;;;25.70;99.90;;;;;;5009124;28;20033;-64
2022/06/30 07:42:03;;;;;;;12.15;7.82;;;25.80;99.90;;;;;;5009857;28;20359;-65
2022/06/30 07:44:28;;;;;;;14.80;7.53;;;25.80;99.90;;;;;;5006435;28;20026;-64
2022/06/30 07:46:54;;;;;;;10.93;7.22;;;25.80;99.90;;;;;;5009976;28;20026;-64
2022/06/30 07:49:20;;;;;;;13.45;7.38;;;26.00;99.90;;;;;;5010226;28;20430;-66
2022/06/30 07:51:46;;;;;;;14.40;7.85;;;26.20;99.90;;;;;;5008402;28;20072;-66
2022/06/30 07:54:11;;;;;;;22.55;8.50;;;26.10;99.90;;;;;;5007651;28;20077;-65
2022/06/30 07:56:37;;;;;;;13.90;8.07;;;26.10;99.90;;;;;;5003299;28;20042;-64
2022/06/30 07:59:03;;;;;;;14.63;7.75;;;26.10;99.90;;;;;;5005122;28;20025;-66
2022/06/30 08:01:28;;;;;;;15.73;8.18;;;26.30;99.90;;;;;;5004039;28;20028;-65
2022/06/30 08:03:54;;;;;;;15.98;8.10;;;26.40;99.90;;;;;;5006655;28;20038;-63
2022/06/30 08:06:21;;;;;;;16.15;8.20;;;26.40;99.90;;;;;;5004522;28;20037;-67
2022/06/30 08:08:47;;;;;;;20.08;8.57;;;26.60;99.90;;;;;;5007606;28;20029;-65
2022/06/30 08:11:13;;;;;;;15.30;7.60;;;26.50;99.90;;;;;;5007235;28;20026;-63
2022/06/30 08:13:39;;;;;;;13.95;7.82;;;26.50;99.90;;;;;;5005468;28;20064;-64
2022/06/30 08:16:05;;;;;;;13.27;7.47;;;26.70;99.90;;;;;;5008104;28;20026;-65
2022/06/30 08:18:31;;;;;;;12.43;7.82;;;26.90;99.90;;;;;;4999960;28;20029;-64
2022/06/30 08:20:56;;;;;;;13.23;7.70;;;27.10;99.90;;;;;;5004065;28;20121;-65
2022/06/30 08:23:23;;;;;;;22.75;7.00;;;27.20;99.90;;;;;;5008284;28;20112;-67
2022/06/30 08:25:48;;;;;;;10.23;7.20;;;27.20;99.90;;;;;;5005774;28;20478;-64
2022/06/30 08:28:14;;;;;;;12.95;6.88;;;27.20;99.90;;;;;;5008187;28;20080;-63
2022/06/30 08:30:40;;;;;;;11.48;7.60;;;27.30;99.90;;;;;;5006690;28;20087;-65
2022/06/30 08:33:06;;;;;;;18.40;7.88;;;27.30;99.90;;;;;;5008440;28;20038;-65
2022/06/30 08:35:32;;;;;;;14.77;7.63;;;27.00;99.90;;;;;;5006702;28;20533;-65
2022/06/30 08:37:57;;;;;;;15.45;7.10;;;26.70;99.90;;;;;;5006653;28;20060;-63
2022/06/30 08:43:11;;;;;;;12.50;7.65;;;26.30;99.90;;;;;;5004685;28;20458;-64
2022/06/30 08:45:37;;;;;;;12.98;7.43;;;26.20;99.90;;;;;;5007380;28;20522;-64
2022/06/30 08:48:03;;;;;;;10.82;6.70;;;26.50;99.90;;;;;;5008163;28;20117;-64
2022/06/30 08:50:29;;;;;;;11.10;7.13;;;26.90;99.90;;;;;;5007146;28;20036;-64
2022/06/30 08:52:58;;;;;;;13.95;7.30;;;27.20;99.90;;;;;;5003734;28;20041;-65
2022/06/30 08:55:29;;;;;;;9.82;7.05;;;27.60;99.90;;;;;;5007990;28;20038;-66
2022/06/30 08:58:00;;;;;;;10.20;6.82;;;27.90;99.90;;;;;;5006172;28;20460;-63
2022/06/30 09:00:27;;;;;;;11.32;7.20;;;28.00;99.90;;;;;;5008692;28;20123;-66
2022/06/30 09:02:53;;;;;;;9.93;7.13;;;28.20;99.90;;;;;;5007552;28;20113;-65
2022/06/30 09:05:19;;;;;;;15.18;8.05;;;28.10;99.90;;;;;;5007972;28;20113;-64
2022/06/30 09:07:45;;;;;;;12.70;7.05;;;27.50;99.90;;;;;;5007563;28;20041;-63
2022/06/30 09:10:11;;;;;;;11.18;6.90;;;27.40;99.90;;;;;;5004765;28;20037;-66
2022/06/30 09:12:37;;;;;;;11.55;8.07;;;27.70;99.90;;;;;;5005622;28;20037;-64
2022/06/30 09:15:04;;;;;;;15.60;7.50;;;28.10;99.90;;;;;;5006687;28;20042;-64
2022/06/30 09:17:31;;;;;;;15.98;7.50;;;28.50;99.90;;;;;;5008492;28;20058;-64
2022/06/30 09:20:02;;;;;;;13.98;7.60;;;28.30;99.90;;;;;;5006013;28;20121;-63
2022/06/30 09:22:36;;;;;;;9.98;7.30;;;28.00;99.90;;;;;;5003678;28;20028;-64
2022/06/30 09:25:05;;;;;;;10.05;7.30;;;27.90;99.90;;;;;;5003387;28;20038;-63
2022/06/30 09:27:36;;;;;;;11.93;7.15;;;28.10;99.90;;;;;;5006016;28;20041;-65
2022/06/30 09:30:04;;;;;;;9.80;7.03;;;28.60;99.90;;;;;;5002301;28;20032;-64
2022/06/30 09:32:52;;;;;;;13.70;7.35;;;29.00;99.90;;;;;;5006186;28;20042;-65
2022/06/30 09:35:20;;;;;;;16.20;6.43;;;29.30;99.50;;;;;;5006543;28;20048;-66
2022/06/30 09:37:55;;;;;;;11.38;6.50;;;29.40;98.70;;;;;;5005291;28;20354;-64
2022/06/30 09:41:04;;;;;;;12.55;7.03;;;29.50;97.80;;;;;;5003594;28;20104;-65
2022/06/30 09:43:35;;;;;;;11.38;6.78;;;29.70;99.30;;;;;;4996190;28;20092;-65
2022/06/30 09:46:01;;;;;;;15.30;6.78;;;29.70;97.90;;;;;;5003864;28;20438;-64
2022/06/30 09:48:28;;;;;;;12.77;6.57;;;29.60;99.00;;;;;;5004597;28;20037;-66
2022/06/30 09:51:03;;;;;;;14.38;7.35;;;29.50;99.00;;;;;;5007024;28;20030;-65
2022/06/30 09:53:29;;;;;;;14.20;7.10;;;29.70;97.40;;;;;;5005914;28;20053;-67
2022/06/30 09:55:56;;;;;;;13.02;7.15;;;29.70;96.60;;;;;;5005578;28;20030;-65
2022/06/30 09:58:30;;;;;;;9.05;6.32;;;29.50;96.80;;;;;;5007218;28;20044;-64
2022/06/30 10:00:56;;;;;;;11.30;7.32;;;29.50;96.60;;;;;;5006957;28;20108;-66
2022/06/30 10:03:22;;;;;;;9.43;6.65;;;29.20;95.60;;;;;;5008425;28;20038;-65
2022/06/30 10:05:50;;;;;;;16.98;6.65;;;28.90;96.20;;;;;;5007427;28;20120;-65
2022/06/30 10:08:18;;;;;;;9.60;6.35;;;29.00;96.10;;;;;;5007690;28;20125;-65
2022/06/30 10:10:45;;;;;;;10.55;6.63;;;29.40;97.80;;;;;;5007352;28;20057;-66
2022/06/30 10:13:15;;;;;;;12.32;6.80;;;29.60;96.20;;;;;;5006042;28;20621;-64
2022/06/30 10:15:44;;;;;;;12.23;6.63;;;30.00;97.10;;;;;;5004696;28;20117;-65
2022/06/30 10:18:11;;;;;;;13.23;6.47;;;30.10;97.10;;;;;;5008318;28;20145;-64
2022/06/30 10:20:38;;;;;;;11.68;7.28;;;30.50;98.00;;;;;;5006569;28;20042;-64
2022/06/30 10:23:08;;;;;;;16.65;6.95;;;30.60;94.80;;;;;;5006196;28;20441;-65
2022/06/30 10:25:36;;;;;;;9.73;7.00;;;30.40;94.50;;;;;;5004814;28;20073;-65
2022/06/30 10:28:03;;;;;;;10.48;6.80;;;30.30;95.50;;;;;;5007135;28;20048;-65
2022/06/30 10:30:43;;;;;;;16.85;6.72;;;30.60;95.30;;;;;;5006866;28;20168;-67
2022/06/30 10:33:17;;;;;;;8.85;6.63;;;30.80;94.50;;;;;;5004047;28;20041;-67
2022/06/30 10:35:51;;;;;;;13.45;6.95;;;31.10;93.90;;;;;;5002942;28;20026;-65
2022/06/30 10:38:45;;;;;;;14.63;7.93;;;30.70;91.80;;;;;;5007469;28;20030;-64
2022/06/30 10:41:14;;;;;;;11.40;7.10;;;30.10;92.20;;;;;;5008065;28;20114;-65
2022/06/30 10:44:04;;;;;;;13.10;6.57;;;29.80;94.60;;;;;;5005816;28;20157;-64
2022/06/30 10:46:34;;;;;;;;;;;29.20;94.70;;;;;;5003848;28;20087;-68
2022/06/30 10:49:07;;;;;;;11.33;7.13;;;28.50;95.40;;;;;;5001602;28;19941;-64
2022/06/30 10:51:33;;;;;;;18.00;6.90;;;27.90;96.70;;;;;;5004668;28;20069;-67
2022/06/30 10:53:59;;;;;;;9.88;6.68;;;28.00;96.30;;;;;;5010390;28;20073;-64
2022/06/30 10:56:51;;;;;;;11.10;6.10;;;28.70;97.30;;;;;;5008565;28;20112;-64
2022/06/30 10:59:25;;;;;;;13.45;7.25;;;29.50;93.70;;;;;;5008014;28;20044;-65
2022/06/30 11:02:16;;;;;;;10.10;6.70;;;30.10;93.80;;;;;;5009407;28;20030;-64
2022/06/30 11:04:47;;;;;;;14.75;7.00;;;30.40;91.60;;;;;;5009175;28;20041;-66
2022/06/30 11:07:18;;;;;;;11.20;6.60;;;30.60;92.00;;;;;;5003754;28;20433;-64
2022/06/30 11:09:43;;;;;;;11.27;6.47;;;30.40;93.10;;;;;;5009014;28;20022;-64
2022/06/30 11:12:13;;;;;;;8.98;6.40;;;30.70;91.20;;;;;;5011411;28;20561;-63
2022/06/30 11:14:49;;;;;;;14.88;7.00;;;30.40;93.60;;;;;;5006054;28;20040;-64
2022/06/30 11:17:17;;;;;;;14.98;6.68;;;30.00;92.80;;;;;;5010284;28;20080;-65
2022/06/30 11:19:43;;;;;;;10.45;7.05;;;30.00;92.90;;;;;;5008935;28;20505;-62
2022/06/30 11:22:14;;;;;;;15.10;6.40;;;29.70;91.30;;;;;;5005961;28;20062;-64
2022/06/30 11:24:42;;;;;;;9.40;6.50;;;29.90;94.50;;;;;;5004468;28;20053;-64
2022/06/30 11:27:18;;;;;;;16.58;6.60;;;30.30;92.90;;;;;;5010556;28;20033;-63
2022/06/30 11:29:47;;;;;;;9.45;6.60;;;30.70;91.80;;;;;;5009651;28;20032;-63
2022/06/30 11:32:13;;;;;;;11.40;5.67;;;31.40;92.10;;;;;;5010433;28;20127;-65
2022/06/30 11:34:40;;;;;;;10.93;6.20;;;31.70;83.90;;;;;;5008892;28;20077;-64
2022/06/30 11:37:09;;;;;;;12.70;6.05;;;31.70;82.60;;;;;;5008501;28;20113;-63
2022/06/30 11:39:35;;;;;;;8.10;5.78;;;32.10;88.70;;;;;;5009729;28;20486;-67
2022/06/30 11:42:06;;;;;;;12.77;5.88;;;32.20;78.40;;;;;;5006857;28;20045;-66
2022/06/30 11:44:35;;;;;;;10.20;5.97;;;31.80;79.80;;;;;;5008958;28;20030;-66
2022/06/30 11:47:03;;;;;;;7.45;5.25;;;31.80;87.30;;;;;;5007916;28;20029;-63
2022/06/30 11:49:45;;;;;;;10.57;5.60;;;32.10;78.70;;;;;;5009794;28;20042;-63
2022/06/30 11:52:15;;;;;;;12.60;5.80;;;32.20;85.20;;;;;;5006572;28;20036;-64
2022/06/30 11:55:12;;;;;;;10.05;5.88;;;31.90;76.50;;;;;;5007258;28;20065;-64
2022/06/30 11:57:43;;;;;;;8.85;5.25;;;31.70;78.00;;;;;;4995903;28;20045;-63
2022/06/30 12:00:15;;;;;;;7.18;5.22;;;32.00;75.50;;;;;;5005743;28;20022;-64
2022/06/30 12:02:43;;;;;;;8.88;5.28;;;31.90;73.00;;;;;;5005633;28;20053;-67
2022/06/30 12:05:11;;;;;;;13.15;5.45;;;31.60;70.80;;;;;;5008261;28;20034;-63
2022/06/30 12:07:38;;;;;;;17.20;5.57;;;31.40;73.90;;;;;;5005654;28;20038;-66
2022/06/30 12:10:07;;;;;;;9.70;5.35;;;31.60;73.40;;;;;;5006892;28;20061;-64
2022/06/30 12:12:35;;;;;;;7.93;5.30;;;31.90;72.30;;;;;;5006300;28;20482;-66
2022/06/30 12:15:12;;;;;;;11.30;5.15;;;32.00;73.10;;;;;;5006827;28;20096;-64
2022/06/30 12:17:40;;;;;;;8.10;5.25;;;31.90;71.90;;;;;;5007329;28;20018;-65
2022/06/30 12:20:11;;;;;;;7.28;5.00;;;31.90;71.80;;;;;;5008430;28;20061;-65
2022/06/30 12:22:42;;;;;;;12.25;4.93;;;32.00;67.90;;;;;;5002404;28;20037;-65
2022/06/30 12:25:08;;;;;;;11.48;5.50;;;31.90;70.60;;;;;;5008921;28;20046;-65
2022/06/30 12:27:42;;;;;;;9.32;5.05;;;31.90;65.70;;;;;;5004945;28;20113;-66
2022/06/30 12:30:13;;;;;;;12.77;5.43;;;31.90;64.00;;;;;;5006517;28;20034;-64
2022/06/30 12:32:40;;;;;;;11.85;5.40;;;31.90;69.70;;;;;;5007668;28;20040;-63
2022/06/30 12:35:11;;;;;;;9.95;5.50;;;32.00;71.30;;;;;;5006678;28;20128;-64
2022/06/30 12:37:41;;;;;;;11.10;5.05;;;32.00;63.70;;;;;;5006371;28;20034;-66
2022/06/30 12:40:08;;;;;;;;;;;31.90;66.20;;;;;;5009335;28;20116;-63
2022/06/30 12:42:44;;;;;;;14.27;5.13;;;31.80;66.30;;;;;;5008919;28;20020;-64
2022/06/30 12:45:45;;;;;;;13.05;4.75;;;31.60;64.40;;;;;;5007889;28;20127;-63
2022/06/30 12:48:12;;;;;;;11.75;5.03;;;31.50;67.00;;;;;;5008581;28;20104;-63
2022/06/30 12:50:41;;;;;;;9.30;5.00;;;31.30;68.00;;;;;;5007936;28;20056;-65
2022/06/30 12:53:17;;;;;;;11.48;5.68;;;31.30;65.10;;;;;;5005814;28;20506;-64